Time;durP1;ratioP1;P1;durP2;ratioP2;P2;SDS_P1;SDS_P2;PMS_P1;PMS_P2;Temp;Humidity;BMP_temperature;BMP_pressure;BME280_temperature;BME280_humidity;BME280_pressure;Samples;Min_cycle;Max_cycle;Signal;HPM_P1;HPM_P2
2022/02/16 00:01:08;;;;;;;;;;;;;;;17.98;39.11;101365.91;5076024;28;987;-55
2022/02/16 00:03:34;;;;;;;;;;;;;;;17.93;39.28;101360.38;5075707;28;805;-55
2022/02/16 00:06:00;;;;;;;;;;;;;;;16.29;42.86;101360.72;5075629;28;884;-55
2022/02/16 00:08:25;;;;;;;;;;;;;;;16.39;43.22;101362.72;5075829;28;798;-54
2022/02/16 00:10:51;;;;;;;;;;;;;;;18.68;38.09;101361.97;5075644;28;1004;-55
2022/02/16 00:13:16;;;;;;;;;;;;;;;18.00;39.05;101360.97;5074950;28;1901;-54
2022/02/16 00:15:43;;;;;;;;;;;;;;;18.19;38.69;101354.97;5075263;28;926;-55
2022/02/16 00:18:08;;;;;;;;;;;;;;;17.03;41.13;101356.50;5075200;28;825;-55
2022/02/16 00:20:34;;;;;;;;;;;;;;;15.49;44.89;101357.47;5075625;28;824;-56
2022/02/16 00:23:00;;;;;;;;;;;;;;;18.01;39.12;101348.03;5075244;28;1389;-55
2022/02/16 00:25:25;;;;;;;;;;;;;;;18.46;38.00;101346.50;5075213;28;861;-55
2022/02/16 00:27:52;;;;;;;;;;;;;;;18.01;38.96;101343.34;5075131;28;840;-55
2022/02/16 00:30:19;;;;;;;;;;;;;;;17.41;40.29;101334.50;5107375;28;1292;-55
2022/02/16 00:32:44;;;;;;;;;;;;;;;15.91;43.43;101341.34;5075122;28;885;-54
2022/02/16 00:35:11;;;;;;;;;;;;;;;17.74;39.78;101337.97;5075259;28;1990;-55
2022/02/16 00:37:36;;;;;;;;;;;;;;;18.57;37.58;101336.34;5076738;28;773;-54
2022/02/16 00:40:02;;;;;;;;;;;;;;;17.97;39.05;101336.75;5078624;28;829;-55
2022/02/16 00:42:29;;;;;;;;;;;;;;;18.02;38.92;101344.19;5078914;28;841;-55
2022/02/16 00:44:55;;;;;;;;;;;;;;;16.31;42.92;101327.50;5078269;28;848;-56
2022/02/16 00:47:20;;;;;;;;;;;;;;;16.58;42.73;101327.53;5079068;28;973;-55
2022/02/16 00:49:46;;;;;;;;;;;;;;;18.75;37.40;101324.78;5078550;28;868;-55
2022/02/16 00:52:13;;;;;;;;;;;;;;;17.82;39.42;101322.88;5111013;28;956;-55
2022/02/16 00:54:40;;;;;;;;;;;;;;;17.97;39.05;101320.22;5077406;28;1914;-55
2022/02/16 00:57:06;;;;;;;;;;;;;;;16.74;41.74;101310.06;5077039;28;1385;-56
2022/02/16 00:59:31;;;;;;;;;;;;;;;15.89;43.90;101305.13;5078171;28;801;-56
2022/02/16 01:02:02;;;;;;;;;;;;;;;18.37;38.34;101306.84;5110877;28;1168;-54
2022/02/16 01:04:28;;;;;;;;;;;;;;;18.13;38.51;101308.19;5078237;28;1409;-55
2022/02/16 01:06:55;;;;;;;;;;;;;;;18.02;39.04;101301.00;5111195;28;1141;-54
2022/02/16 01:09:21;;;;;;;;;;;;;;;17.34;40.09;101306.44;5078073;28;783;-55
2022/02/16 01:11:48;;;;;;;;;;;;;;;15.66;44.14;101303.41;5110621;28;1290;-56
2022/02/16 01:14:14;;;;;;;;;;;;;;;17.58;39.93;101306.81;5073839;28;1981;-54
2022/02/16 01:16:52;;;;;;;;;;;;;;;18.44;37.84;101302.72;5107542;28;1346;-56
2022/02/16 01:19:36;;;;;;;;;;;;;;;17.86;39.27;101296.50;5106264;28;1587;-55
2022/02/16 01:22:04;;;;;;;;;;;;;;;17.63;39.77;101290.34;5078075;28;776;-55
2022/02/16 01:24:30;;;;;;;;;;;;;;;15.83;43.55;101288.84;5110636;28;1175;-56
2022/02/16 01:26:56;;;;;;;;;;;;;;;17.56;40.32;101293.34;5110724;28;1412;-55
2022/02/16 01:29:23;;;;;;;;;;;;;;;18.69;37.43;101286.50;5110454;28;1334;-54
2022/02/16 01:31:56;;;;;;;;;;;;;;;18.12;38.66;101291.94;5110271;28;1331;-55
2022/02/16 01:34:24;;;;;;;;;;;;;;;17.97;38.64;101281.72;5109800;28;1970;-56
2022/02/16 01:36:50;;;;;;;;;;;;;;;16.35;42.52;101282.00;5110343;28;1469;-55
2022/02/16 01:39:15;;;;;;;;;;;;;;;16.54;42.66;101276.97;5076542;28;1161;-55
2022/02/16 01:41:44;;;;;;;;;;;;;;;18.73;37.41;101276.56;5110221;28;1379;-56
2022/02/16 01:44:20;;;;;;;;;;;;;;;18.10;38.82;101274.84;5110452;28;1104;-55
2022/02/16 01:46:55;;;;;;;;;;;;;;;18.29;38.49;101277.94;5110005;28;1282;-56
2022/02/16 01:49:26;;;;;;;;;;;;;;;16.70;41.60;101269.69;5110239;28;1284;-56
2022/02/16 01:51:54;;;;;;;;;;;;;;;15.76;44.06;101269.81;5109864;28;1567;-56
2022/02/16 01:54:23;;;;;;;;;;;;;;;18.23;38.83;101268.00;5110168;28;1909;-55
2022/02/16 01:56:49;;;;;;;;;;;;;;;18.30;38.20;101271.34;5110135;28;1225;-55
2022/02/16 01:59:18;;;;;;;;;;;;;;;18.28;38.23;101259.75;5109724;28;1352;-55
2022/02/16 02:02:07;;;;;;;;;;;;;;;17.36;40.13;101247.34;5076733;28;977;-55
2022/02/16 02:04:35;;;;;;;;;;;;;;;15.72;43.42;101250.31;5109919;28;1531;-55
2022/02/16 02:07:08;;;;;;;;;;;;;;;17.77;39.63;101250.25;5076123;28;1284;-55
2022/02/16 02:09:34;;;;;;;;;;;;;;;18.55;37.65;101250.41;5077460;28;801;-55
2022/02/16 02:11:59;;;;;;;;;;;;;;;18.09;38.71;101251.19;5092515;28;1147;-55
2022/02/16 02:14:26;;;;;;;;;;;;;;;17.79;39.10;101245.31;5075688;28;1906;-55
2022/02/16 02:17:05;;;;;;;;;;;;;;;16.20;42.61;101252.47;5109120;28;2141;-55
2022/02/16 02:19:31;;;;;;;;;;;;;;;16.98;41.42;101249.31;5109647;28;1266;-55
2022/02/16 02:22:00;;;;;;;;;;;;;;;18.78;37.40;101252.59;5109606;28;1278;-55
2022/02/16 02:24:26;;;;;;;;;;;;;;;18.08;38.93;101258.63;5109346;28;1510;-55
2022/02/16 02:26:51;;;;;;;;;;;;;;;18.62;37.68;101259.22;5108193;28;1031;-55
2022/02/16 02:29:17;;;;;;;;;;;;;;;17.23;40.47;101250.56;5109235;28;1277;-53
2022/02/16 02:31:52;;;;;;;;;;;;;;;15.67;43.68;101258.47;5108919;28;1247;-55
2022/02/16 02:34:18;;;;;;;;;;;;;;;17.79;39.62;101264.56;5108992;28;2012;-55
2022/02/16 02:36:43;;;;;;;;;;;;;;;18.70;37.45;101257.84;5109364;28;1089;-55
2022/02/16 02:39:09;;;;;;;;;;;;;;;18.15;38.75;101249.28;5109198;28;1195;-54
2022/02/16 02:41:35;;;;;;;;;;;;;;;17.79;39.07;101264.56;5108889;28;1561;-54
2022/02/16 02:44:00;;;;;;;;;;;;;;;16.19;42.79;101257.16;5109260;28;1355;-55
2022/02/16 02:46:27;;;;;;;;;;;;;;;16.75;41.86;101259.56;5109113;28;1164;-55
2022/02/16 02:48:56;;;;;;;;;;;;;;;18.80;37.25;101261.44;5108896;28;1119;-55
2022/02/16 02:51:23;;;;;;;;;;;;;;;17.95;38.79;101261.91;5108632;28;771;-55
2022/02/16 02:53:50;;;;;;;;;;;;;;;18.30;38.16;101260.31;5075415;28;1910;-55
2022/02/16 02:56:16;;;;;;;;;;;;;;;16.87;41.31;101258.53;5109199;28;1142;-55
2022/02/16 02:58:42;;;;;;;;;;;;;;;15.70;44.31;101257.94;5108962;28;1164;-55
2022/02/16 03:01:09;;;;;;;;;;;;;;;18.16;38.85;101256.44;5074781;28;942;-54
2022/02/16 03:03:39;;;;;;;;;;;;;;;18.78;37.30;101262.81;5108443;28;1113;-56
2022/02/16 03:06:07;;;;;;;;;;;;;;;18.92;36.84;101250.13;5075172;28;1392;-54
2022/02/16 03:08:33;;;;;;;;;;;;;;;18.41;38.16;101256.47;5108609;28;1432;-55
2022/02/16 03:10:59;;;;;;;;;;;;;;;17.55;39.88;101257.88;5076275;28;1012;-55
2022/02/16 03:13:24;;;;;;;;;;;;;;;15.96;43.29;101260.19;5108712;28;1909;-54
2022/02/16 03:15:56;;;;;;;;;;;;;;;17.42;40.37;101254.50;5074702;28;1164;-54
2022/02/16 03:18:24;;;;;;;;;;;;;;;18.90;36.92;101255.13;5074506;28;1350;-56
2022/02/16 03:20:50;;;;;;;;;;;;;;;18.05;38.74;101256.41;5076006;28;821;-54
2022/02/16 03:23:16;;;;;;;;;;;;;;;18.45;37.85;101249.31;5108426;28;1083;-54
2022/02/16 03:25:41;;;;;;;;;;;;;;;16.73;41.28;101256.25;5075919;28;927;-55
2022/02/16 03:28:07;;;;;;;;;;;;;;;15.55;44.75;101250.38;5108924;28;1288;-55
2022/02/16 03:30:33;;;;;;;;;;;;;;;18.15;38.77;101257.53;5108020;28;1120;-55
2022/02/16 03:33:05;;;;;;;;;;;;;;;18.32;38.31;101249.84;5075413;28;1064;-54
2022/02/16 03:35:31;;;;;;;;;;;;;;;17.70;39.66;101249.69;5076333;28;860;-54
2022/02/16 03:37:57;;;;;;;;;;;;;;;17.38;39.95;101249.81;5074469;28;1324;-54
2022/02/16 03:40:22;;;;;;;;;;;;;;;15.71;43.58;101243.16;5108515;28;1192;-54
2022/02/16 03:42:49;;;;;;;;;;;;;;;17.74;39.51;101247.19;5108441;28;1282;-55
2022/02/16 03:45:15;;;;;;;;;;;;;;;18.55;37.75;101250.41;5108187;28;1231;-54
2022/02/16 03:47:53;;;;;;;;;;;;;;;17.86;39.28;101246.97;5067965;28;1142;-54
2022/02/16 03:50:19;;;;;;;;;;;;;;;17.71;39.33;101248.59;5063004;28;1145;-54
2022/02/16 03:52:45;;;;;;;;;;;;;;;16.02;42.89;101249.03;5074119;28;1253;-55
2022/02/16 03:55:11;;;;;;;;;;;;;;;17.14;41.01;101244.75;5107789;28;1921;-54
2022/02/16 03:57:36;;;;;;;;;;;;;;;18.90;37.15;101234.97;5074538;28;1105;-55
2022/02/16 04:00:04;;;;;;;;;;;;;;;18.93;36.79;101232.50;5108377;28;1254;-56
2022/02/16 04:02:47;;;;;;;;;;;;;;;18.46;37.70;101241.88;5068849;28;1228;-56
2022/02/16 04:05:12;;;;;;;;;;;;;;;17.74;39.44;101239.78;5075299;28;1344;-56
2022/02/16 04:07:38;;;;;;;;;;;;;;;16.11;42.43;101243.06;5073430;28;1194;-56
2022/02/16 04:10:05;;;;;;;;;;;;;;;17.14;41.00;101250.25;5104456;28;1199;-55
2022/02/16 04:12:31;;;;;;;;;;;;;;;18.88;37.28;101237.19;5075828;28;1289;-56
2022/02/16 04:14:57;;;;;;;;;;;;;;;18.06;38.56;101241.56;5110886;28;2366;-56
2022/02/16 04:17:22;;;;;;;;;;;;;;;18.23;38.48;101233.06;5110481;28;1766;-56
2022/02/16 04:19:49;;;;;;;;;;;;;;;16.54;41.95;101230.28;5110828;27;1197;-56
2022/02/16 04:22:16;;;;;;;;;;;;;;;16.09;43.27;101232.38;5077549;28;1087;-56
2022/02/16 04:24:43;;;;;;;;;;;;;;;18.45;38.13;101237.47;5111528;28;1333;-57
2022/02/16 04:27:09;;;;;;;;;;;;;;;18.15;38.33;101233.59;5078048;28;1337;-56
2022/02/16 04:29:34;;;;;;;;;;;;;;;18.12;38.44;101228.63;5077876;28;1109;-56
2022/02/16 04:32:00;;;;;;;;;;;;;;;17.14;40.40;101238.41;5110954;28;1109;-56
2022/02/16 04:34:25;;;;;;;;;;;;;;;15.95;43.45;101226.47;5079205;28;1968;-56
2022/02/16 04:36:51;;;;;;;;;;;;;;;18.09;38.69;101237.41;5111567;28;1305;-56
2022/02/16 04:39:16;;;;;;;;;;;;;;;18.53;37.43;101241.59;5111162;28;1905;-57
2022/02/16 04:41:43;;;;;;;;;;;;;;;18.07;38.76;101247.88;5077233;28;1598;-56
2022/02/16 04:44:13;;;;;;;;;;;;;;;17.72;39.33;101249.41;5076731;28;1213;-56
2022/02/16 04:46:44;;;;;;;;;;;;;;;16.13;42.44;101249.13;5076673;28;1226;-56
2022/02/16 04:49:10;;;;;;;;;;;;;;;16.87;41.46;101242.06;5111409;28;1164;-56
2022/02/16 04:51:35;;;;;;;;;;;;;;;18.75;37.35;101249.59;5111094;28;1109;-56
2022/02/16 04:54:01;;;;;;;;;;;;;;;18.13;38.42;101253.13;5103831;28;1980;-54
2022/02/16 04:56:27;;;;;;;;;;;;;;;18.97;36.71;101255.66;5110831;28;1526;-55
2022/02/16 04:58:53;;;;;;;;;;;;;;;17.69;39.15;101258.19;5111375;28;1156;-56
2022/02/16 05:01:20;;;;;;;;;;;;;;;16.17;42.58;101248.38;5109747;28;1279;-56
2022/02/16 05:03:49;;;;;;;;;;;;;;;17.02;41.42;101253.19;5076804;28;1389;-55
2022/02/16 05:06:14;;;;;;;;;;;;;;;18.85;37.15;101259.78;5078464;28;836;-56
2022/02/16 05:08:40;;;;;;;;;;;;;;;18.05;38.77;101267.44;5111190;28;1240;-54
2022/02/16 05:11:06;;;;;;;;;;;;;;;18.20;38.52;101261.13;5110387;28;1101;-56
2022/02/16 05:13:41;;;;;;;;;;;;;;;16.58;41.73;101261.63;5110248;28;2164;-56
2022/02/16 05:16:08;;;;;;;;;;;;;;;16.57;42.02;101265.47;5110502;28;1152;-57
2022/02/16 05:18:35;;;;;;;;;;;;;;;18.70;37.29;101275.19;5109520;28;2101;-56
2022/02/16 05:21:10;;;;;;;;;;;;;;;18.11;38.63;101266.31;5077949;28;973;-57
2022/02/16 05:23:36;;;;;;;;;;;;;;;18.35;38.18;101276.00;5075532;28;1302;-56
2022/02/16 05:26:09;;;;;;;;;;;;;;;16.83;41.02;101268.41;5110703;28;1228;-55
2022/02/16 05:28:35;;;;;;;;;;;;;;;15.78;43.89;101269.56;5110705;28;1112;-56
2022/02/16 05:31:01;;;;;;;;;;;;;;;18.14;38.87;101275.97;5110385;28;1453;-56
2022/02/16 05:33:27;;;;;;;;;;;;;;;18.37;37.64;101269.13;5110411;28;1917;-57
2022/02/16 05:35:53;;;;;;;;;;;;;;;18.44;37.67;101269.69;5109918;28;1228;-57
2022/02/16 05:38:20;;;;;;;;;;;;;;;18.21;38.31;101273.78;5076254;28;1136;-56
2022/02/16 05:40:47;;;;;;;;;;;;;;;16.42;42.19;101279.88;5110538;28;1331;-57
2022/02/16 05:43:13;;;;;;;;;;;;;;;16.14;43.03;101286.44;5110343;28;1278;-57
2022/02/16 05:45:40;;;;;;;;;;;;;;;18.60;37.43;101283.47;5109818;28;1145;-56
2022/02/16 05:48:07;;;;;;;;;;;;;;;18.04;38.28;101287.78;5092633;28;1287;-56
2022/02/16 05:50:33;;;;;;;;;;;;;;;18.27;38.26;101291.13;5110056;28;1318;-57
2022/02/16 05:52:58;;;;;;;;;;;;;;;17.18;40.31;101278.84;5077315;28;926;-56
2022/02/16 05:55:24;;;;;;;;;;;;;;;15.69;43.53;101288.38;5077186;28;1903;-56
2022/02/16 05:57:49;;;;;;;;;;;;;;;17.80;39.31;101284.66;5076205;28;1223;-57
2022/02/16 06:00:15;;;;;;;;;;;;;;;18.62;37.18;101286.75;5076025;28;1183;-56
2022/02/16 06:02:43;;;;;;;;;;;;;;;18.08;38.68;101283.38;5075196;28;1275;-55
2022/02/16 06:05:13;;;;;;;;;;;;;;;17.73;39.25;101279.38;5109215;28;1321;-55
2022/02/16 06:07:38;;;;;;;;;;;;;;;15.94;42.82;101276.91;5075330;28;1383;-57
2022/02/16 06:10:05;;;;;;;;;;;;;;;17.31;40.56;101280.28;5109677;28;1156;-56
2022/02/16 06:12:31;;;;;;;;;;;;;;;18.83;36.98;101281.25;5075254;28;1134;-57
2022/02/16 06:14:57;;;;;;;;;;;;;;;17.95;38.65;101283.91;5076750;28;1968;-55
2022/02/16 06:17:22;;;;;;;;;;;;;;;18.27;38.04;101283.72;5074894;28;925;-56
2022/02/16 06:19:50;;;;;;;;;;;;;;;16.50;41.88;101281.31;5091889;28;1321;-56
2022/02/16 06:22:16;;;;;;;;;;;;;;;16.51;42.32;101280.22;5109693;28;1124;-55
2022/02/16 06:24:42;;;;;;;;;;;;;;;18.73;37.41;101274.66;5109600;28;1113;-54
2022/02/16 06:27:08;;;;;;;;;;;;;;;18.02;38.67;101273.47;5075191;28;1275;-56
2022/02/16 06:29:34;;;;;;;;;;;;;;;18.21;38.33;101271.03;5077385;28;1266;-55
2022/02/16 06:32:25;;;;;;;;;;;;;;;16.60;41.40;101275.91;5074006;28;973;-55
2022/02/16 06:34:52;;;;;;;;;;;;;;;16.29;42.72;101261.91;5108440;28;1913;-57
2022/02/16 06:37:18;;;;;;;;;;;;;;;18.69;37.72;101261.69;5076569;28;813;-56
2022/02/16 06:39:45;;;;;;;;;;;;;;;18.32;38.15;101276.56;5108743;28;1117;-56
2022/02/16 06:42:12;;;;;;;;;;;;;;;18.53;37.86;101263.63;5075209;28;2135;-56
2022/02/16 06:44:38;;;;;;;;;;;;;;;17.49;39.82;101258.94;5108930;28;2140;-53
2022/02/16 06:47:03;;;;;;;;;;;;;;;15.99;43.55;101252.28;5106619;28;1205;-55
2022/02/16 06:49:29;;;;;;;;;;;;;;;17.40;41.04;101256.72;5074951;28;1567;-54
2022/02/16 06:51:58;;;;;;;;;;;;;;;18.93;37.67;101253.75;5070693;28;1293;-58
2022/02/16 06:54:24;;;;;;;;;;;;;;;18.10;39.15;101255.59;5107595;28;1917;-61
2022/02/16 06:56:50;;;;;;;;;;;;;;;18.38;39.11;101258.94;5108036;28;1610;-65
2022/02/16 06:59:27;;;;;;;;;;;;;;;16.68;42.89;101258.97;5103052;28;1612;-59
2022/02/16 07:01:57;;;;;;;;;;;;;;;17.41;41.73;101252.84;5073371;28;1246;-58
2022/02/16 07:04:22;;;;;;;;;;;;;;;19.19;37.97;101261.94;5074409;28;1400;-57
2022/02/16 07:06:48;;;;;;;;;;;;;;;18.21;39.89;101248.19;5072045;28;1263;-62
2022/02/16 07:09:15;;;;;;;;;;;;;;;18.65;39.15;101244.91;5102746;28;1313;-61
2022/02/16 07:11:43;;;;;;;;;;;;;;;17.26;41.78;101244.53;5071536;28;1372;-57
2022/02/16 07:14:09;;;;;;;;;;;;;;;15.91;45.76;101241.78;5070721;28;1906;-68
2022/02/16 07:16:35;;;;;;;;;;;;;;;18.34;40.19;101242.16;5088072;28;1383;-65
2022/02/16 07:19:00;;;;;;;;;;;;;;;18.73;39.10;101238.84;5071346;28;1283;-64
2022/02/16 07:21:29;;;;;;;;;;;;;;;18.40;39.95;101241.03;5072502;28;1185;-65
2022/02/16 07:23:57;;;;;;;;;;;;;;;18.15;40.19;101247.34;5070713;28;2167;-61
2022/02/16 07:26:24;;;;;;;;;;;;;;;16.29;44.15;101242.69;5073529;28;1358;-62
2022/02/16 07:28:49;;;;;;;;;;;;;;;17.26;42.34;101239.88;5072769;28;1270;-65
2022/02/16 07:31:15;;;;;;;;;;;;;;;19.15;37.99;101245.97;5071255;28;1244;-65
2022/02/16 07:33:42;;;;;;;;;;;;;;;18.17;39.91;101238.81;5107435;28;1898;-67
2022/02/16 07:36:07;;;;;;;;;;;;;;;18.47;39.54;101238.84;5107056;28;1345;-67
2022/02/16 07:38:34;;;;;;;;;;;;;;;16.80;42.81;101235.97;5107019;28;1494;-61
2022/02/16 07:41:00;;;;;;;;;;;;;;;16.15;44.90;101230.50;5070636;28;1383;-62
2022/02/16 07:43:30;;;;;;;;;;;;;;;18.70;38.84;101217.34;5072034;28;1544;-64
2022/02/16 07:46:27;;;;;;;;;;;;;;;18.22;39.96;101230.56;5081146;28;1343;-70
2022/02/16 07:48:53;;;;;;;;;;;;;;;17.84;40.72;101218.91;5075529;28;1341;-66
2022/02/16 07:51:42;;;;;;;;;;;;;;;16.34;43.94;101229.03;5075283;28;1236;-65
2022/02/16 07:54:30;;;;;;;;;;;;;;;17.56;41.54;101219.09;5078241;28;1902;-68
2022/02/16 07:57:18;;;;;;;;;;;;;;;18.57;38.85;101223.44;5079118;28;1419;-67
2022/02/16 07:59:44;;;;;;;;;;;;;;;18.10;39.84;101217.06;5112290;28;1416;-68
2022/02/16 08:02:09;;;;;;;;;;;;;;;17.90;40.27;101212.31;5110033;28;1265;-66
2022/02/16 08:04:35;;;;;;;;;;;;;;;16.47;44.00;101226.94;5109308;28;1230;-62
2022/02/16 08:07:01;;;;;;;;;;;;;;;16.66;44.41;101236.44;5075377;28;1358;-64
2022/02/16 08:09:28;;;;;;;;;;;;;;;19.00;38.56;101231.38;5075350;28;1667;-63
2022/02/16 08:11:54;;;;;;;;;;;;;;;18.19;40.12;101222.84;5076467;28;1133;-58
2022/02/16 08:14:20;;;;;;;;;;;;;;;17.94;40.88;101232.72;5076649;28;1910;-64
2022/02/16 08:16:48;;;;;;;;;;;;;;;16.67;43.54;101221.59;5059958;28;1286;-65
2022/02/16 08:19:13;;;;;;;;;;;;;;;16.15;45.14;101225.00;5110104;28;1358;-60
2022/02/16 08:21:42;;;;;;;;;;;;;;;18.60;39.65;101236.66;5076824;28;1307;-67
2022/02/16 08:24:08;;;;;;;;;;;;;;;18.18;39.91;101226.72;5077088;28;1193;-64
2022/02/16 08:26:34;;;;;;;;;;;;;;;17.74;40.89;101228.78;5111085;28;1144;-64
2022/02/16 08:29:00;;;;;;;;;;;;;;;16.79;43.16;101215.09;5109784;28;1303;-65
2022/02/16 08:31:26;;;;;;;;;;;;;;;15.94;45.47;101211.09;5110640;28;1377;-65
2022/02/16 08:34:11;;;;;;;;;;;;;;;18.56;39.21;101211.56;5072377;28;1966;-67
2022/02/16 08:36:56;;;;;;;;;;;;;;;18.11;39.90;101207.72;5075080;28;1216;-65
2022/02/16 08:39:25;;;;;;;;;;;;;;;17.80;40.97;101207.63;5075858;28;1199;-60
2022/02/16 08:41:51;;;;;;;;;;;;;;;16.71;43.19;101200.75;5073993;28;1357;-64
2022/02/16 08:44:16;;;;;;;;;;;;;;;16.24;44.78;101196.00;5073006;28;1394;-61
2022/02/16 08:46:42;;;;;;;;;;;;;;;18.70;38.82;101197.25;5078455;28;1167;-64
2022/02/16 08:49:07;;;;;;;;;;;;;;;18.19;39.75;101204.41;5074332;28;1190;-63
2022/02/16 08:51:32;;;;;;;;;;;;;;;17.70;40.70;101197.44;5077262;28;1229;-67
2022/02/16 08:53:59;;;;;;;;;;;;;;;16.69;43.12;101186.47;5077402;28;1975;-57
2022/02/16 08:56:25;;;;;;;;;;;;;;;16.16;44.57;101200.06;5077718;28;1049;-60
2022/02/16 08:58:51;;;;;;;;;;;;;;;18.63;39.12;101187.34;5075840;28;1206;-63
2022/02/16 09:01:16;;;;;;;;;;;;;;;18.27;39.25;101186.50;5077633;28;1290;-59
2022/02/16 09:03:41;;;;;;;;;;;;;;;17.86;40.43;101187.28;5078267;28;1124;-68
2022/02/16 09:06:07;;;;;;;;;;;;;;;17.33;41.52;101179.13;5076983;28;1274;-62
2022/02/16 09:08:32;;;;;;;;;;;;;;;16.03;44.56;101184.00;5078426;28;833;-60
2022/02/16 09:10:58;;;;;;;;;;;;;;;17.69;41.29;101182.00;5078181;28;876;-61
2022/02/16 09:13:23;;;;;;;;;;;;;;;18.79;38.70;101171.59;5078008;28;1909;-57
2022/02/16 09:15:49;;;;;;;;;;;;;;;18.03;40.40;101175.22;5077805;28;1285;-66
2022/02/16 09:18:17;;;;;;;;;;;;;;;18.05;40.51;101175.78;5078111;28;1470;-61
2022/02/16 09:20:46;;;;;;;;;;;;;;;16.51;43.55;101162.16;5076604;28;1434;-69
2022/02/16 09:23:12;;;;;;;;;;;;;;;17.07;43.44;101180.97;5078219;28;1252;-61
2022/02/16 09:25:38;;;;;;;;;;;;;;;19.06;39.14;101158.63;5077113;28;1273;-63
2022/02/16 09:28:03;;;;;;;;;;;;;;;18.96;39.11;101167.75;5077750;28;889;-61
2022/02/16 09:30:29;;;;;;;;;;;;;;;18.59;40.28;101166.97;5077510;28;841;-61
2022/02/16 09:32:55;;;;;;;;;;;;;;;17.62;42.71;101165.75;5072366;28;1456;-57
2022/02/16 09:35:20;;;;;;;;;;;;;;;16.00;46.31;101157.09;5075592;28;1921;-57
2022/02/16 09:37:47;;;;;;;;;;;;;;;16.91;44.66;101158.06;5075627;28;1177;-58
2022/02/16 09:40:13;;;;;;;;;;;;;;;18.99;39.63;101153.41;5077712;28;1213;-58
2022/02/16 09:42:38;;;;;;;;;;;;;;;18.14;41.37;101163.13;5082707;28;1125;-59
2022/02/16 09:45:04;;;;;;;;;;;;;;;17.72;42.13;101148.47;5110460;28;906;-59
2022/02/16 09:47:30;;;;;;;;;;;;;;;16.34;45.54;101156.84;5077612;28;965;-58
2022/02/16 09:49:55;;;;;;;;;;;;;;;15.80;47.42;101146.78;5077860;28;1141;-57
2022/02/16 09:52:21;;;;;;;;;;;;;;;16.91;44.13;101147.94;5079545;28;1416;-58
2022/02/16 09:54:46;;;;;;;;;;;;;;;17.51;42.62;101131.09;5077541;28;1910;-58
2022/02/16 09:57:12;;;;;;;;;;;;;;;16.71;44.46;101129.38;5077196;28;1376;-58
2022/02/16 09:59:37;;;;;;;;;;;;;;;16.56;44.82;101121.03;5076438;28;1182;-58
2022/02/16 10:02:04;;;;;;;;;;;;;;;16.60;44.95;101124.91;5077014;28;1018;-58
2022/02/16 10:04:30;;;;;;;;;;;;;;;15.99;45.83;101101.44;5077624;28;860;-59
2022/02/16 10:06:56;;;;;;;;;;;;;;;17.86;42.11;101109.44;5076681;28;816;-58
2022/02/16 10:09:29;;;;;;;;;;;;;;;18.68;39.78;101103.88;5076887;28;1237;-59
2022/02/16 10:12:06;;;;;;;;;;;;;;;17.75;41.71;101094.84;5077220;28;761;-58
2022/02/16 10:14:33;;;;;;;;;;;;;;;17.03;43.42;101083.69;5076754;28;1909;-57
2022/02/16 10:17:02;;;;;;;;;;;;;;;15.58;47.07;101090.03;5076324;28;1515;-58
2022/02/16 10:19:47;;;;;;;;;;;;;;;17.86;41.93;101110.25;5074753;28;1270;-57
2022/02/16 10:22:12;;;;;;;;;;;;;;;18.50;39.80;101083.25;5073961;28;1326;-58
2022/02/16 10:24:38;;;;;;;;;;;;;;;17.68;41.79;101092.34;5068450;28;1356;-57
2022/02/16 10:27:03;;;;;;;;;;;;;;;17.04;43.31;101088.06;5073419;28;1262;-57
2022/02/16 10:29:30;;;;;;;;;;;;;;;15.33;46.95;101072.28;5071284;28;1302;-59
2022/02/16 10:31:56;;;;;;;;;;;;;;;17.69;42.23;101082.19;5072421;28;1233;-63
2022/02/16 10:34:21;;;;;;;;;;;;;;;19.08;38.51;101063.53;5070800;28;1977;-64
2022/02/16 10:36:48;;;;;;;;;;;;;;;18.87;38.96;101059.16;5070489;28;1418;-62
2022/02/16 10:39:17;;;;;;;;;;;;;;;17.83;41.55;101058.53;5074705;28;1382;-62
2022/02/16 10:41:44;;;;;;;;;;;;;;;16.76;43.88;101059.94;5073350;28;1325;-63
2022/02/16 10:44:21;;;;;;;;;;;;;;;15.59;46.74;101047.03;5074131;28;1274;-61
2022/02/16 10:46:59;;;;;;;;;;;;;;;18.19;40.95;101068.72;5073787;28;1143;-58
2022/02/16 10:49:28;;;;;;;;;;;;;;;18.50;39.86;101049.41;5074436;28;1338;-59
2022/02/16 10:52:07;;;;;;;;;;;;;;;17.55;41.98;101033.22;5076159;28;1441;-64
2022/02/16 10:54:32;;;;;;;;;;;;;;;16.47;44.16;101037.56;5073652;28;1905;-65
2022/02/16 10:56:58;;;;;;;;;;;;;;;16.14;45.59;101039.53;5073598;28;1225;-67
2022/02/16 10:59:23;;;;;;;;;;;;;;;18.50;40.23;101019.91;5075297;28;1314;-61
2022/02/16 11:01:50;;;;;;;;;;;;;;;18.15;40.28;101015.34;5074400;28;1329;-62
2022/02/16 11:04:15;;;;;;;;;;;;;;;17.67;41.86;101019.22;5073057;28;1168;-64
2022/02/16 11:06:43;;;;;;;;;;;;;;;16.62;43.73;101004.69;5073278;28;1241;-61
2022/02/16 11:09:17;;;;;;;;;;;;;;;15.61;46.83;101021.00;5071906;28;1371;-62
2022/02/16 11:11:43;;;;;;;;;;;;;;;18.22;40.72;101008.44;5073881;28;1139;-58
2022/02/16 11:14:08;;;;;;;;;;;;;;;18.34;40.23;100999.88;5073092;28;1910;-61
2022/02/16 11:16:34;;;;;;;;;;;;;;;17.72;41.48;100996.38;5106598;28;1255;-62
2022/02/16 11:19:06;;;;;;;;;;;;;;;16.98;43.23;100982.00;5071910;28;1380;-60
2022/02/16 11:21:31;;;;;;;;;;;;;;;15.47;46.99;100973.19;5075056;28;1510;-62
2022/02/16 11:23:57;;;;;;;;;;;;;;;18.19;41.08;100966.88;5075130;28;835;-66
2022/02/16 11:26:28;;;;;;;;;;;;;;;18.74;39.56;100951.22;5067888;28;1286;-68
2022/02/16 11:28:55;;;;;;;;;;;;;;;17.94;41.47;100969.41;5073543;28;1383;-61
2022/02/16 11:31:27;;;;;;;;;;;;;;;17.04;43.81;100965.28;5099164;28;1307;-61
2022/02/16 11:34:11;;;;;;;;;;;;;;;15.28;48.26;100967.25;5074886;28;1967;-62
2022/02/16 11:36:56;;;;;;;;;;;;;;;18.11;41.51;100963.59;5075579;28;1424;-62
2022/02/16 11:39:41;;;;;;;;;;;;;;;18.22;41.05;100966.34;5074853;28;1282;-64
2022/02/16 11:42:06;;;;;;;;;;;;;;;18.04;41.79;100949.31;5068803;28;1269;-64
2022/02/16 11:44:50;;;;;;;;;;;;;;;17.48;43.44;100949.38;5074130;28;1559;-57
2022/02/16 11:47:31;;;;;;;;;;;;;;;15.47;48.01;100956.75;5073535;28;1361;-59
2022/02/16 11:49:56;;;;;;;;;;;;;;;18.14;41.92;100953.97;5075079;28;1403;-55
2022/02/16 11:52:35;;;;;;;;;;;;;;;18.21;41.34;100928.91;5073704;28;1412;-58
2022/02/16 11:55:00;;;;;;;;;;;;;;;17.69;42.75;100961.19;5074446;28;1906;-60
2022/02/16 11:57:38;;;;;;;;;;;;;;;16.66;44.83;100953.63;5074961;28;1251;-58
2022/02/16 12:00:11;;;;;;;;;;;;;;;15.64;47.87;100940.16;5103998;28;1357;-58
2022/02/16 12:03:08;;;;;;;;;;;;;;;18.41;41.34;100942.59;5069410;28;1228;-60
2022/02/16 12:05:47;;;;;;;;;;;;;;;18.07;41.81;100934.97;5075167;28;1478;-63
2022/02/16 12:08:13;;;;;;;;;;;;;;;17.41;42.81;100928.47;5075504;28;1345;-58
2022/02/16 12:10:43;;;;;;;;;;;;;;;16.12;45.98;100927.31;5074960;28;1258;-57
2022/02/16 12:13:09;;;;;;;;;;;;;;;16.52;45.83;100927.75;5078556;28;1444;-55
2022/02/16 12:15:36;;;;;;;;;;;;;;;18.68;40.33;100915.72;5074956;28;1909;-59
2022/02/16 12:18:02;;;;;;;;;;;;;;;18.14;41.88;100920.94;5074580;28;1231;-60
2022/02/16 12:20:28;;;;;;;;;;;;;;;17.41;43.46;100917.47;5076043;28;1656;-58
2022/02/16 12:22:59;;;;;;;;;;;;;;;16.14;46.26;100927.06;5076071;28;1245;-62
2022/02/16 12:25:25;;;;;;;;;;;;;;;16.65;45.88;100935.50;5073898;28;1202;-58
2022/02/16 12:27:50;;;;;;;;;;;;;;;18.78;40.49;100919.25;5073540;28;1251;-57
2022/02/16 12:30:16;;;;;;;;;;;;;;;18.06;41.80;100916.00;5073641;28;1297;-63
2022/02/16 12:32:47;;;;;;;;;;;;;;;17.52;43.25;100899.06;5074338;28;1179;-59
2022/02/16 12:35:12;;;;;;;;;;;;;;;16.14;46.06;100896.88;5078446;28;1974;-58
2022/02/16 12:37:38;;;;;;;;;;;;;;;16.37;45.98;100906.59;5077708;28;1087;-60
2022/02/16 12:40:08;;;;;;;;;;;;;;;18.73;40.44;100886.25;5077550;28;1491;-63
2022/02/16 12:42:41;;;;;;;;;;;;;;;17.92;41.91;100886.34;5078608;28;1148;-60
2022/02/16 12:45:07;;;;;;;;;;;;;;;17.58;42.82;100883.38;5078782;28;761;-61
2022/02/16 12:47:33;;;;;;;;;;;;;;;16.40;45.53;100892.31;5082282;28;1301;-57
2022/02/16 12:50:05;;;;;;;;;;;;;;;15.44;48.29;100886.03;5079094;28;1445;-61
2022/02/16 12:52:30;;;;;;;;;;;;;;;17.69;43.05;100878.69;5077677;28;849;-62